createdAt,value
2022-10-05T00:01:33.767Z,95.94
2022-10-05T00:04:15.612Z,95.41
2022-10-05T00:06:50.777Z,96.34
2022-10-05T00:09:21.021Z,97.81
2022-10-05T00:11:49.465Z,97.73
2022-10-05T00:14:36.838Z,98.34
2022-10-05T00:17:06.210Z,99.16
2022-10-05T00:19:37.762Z,99.98
2022-10-05T00:22:20.544Z,100.00
2022-10-05T00:24:50.295Z,100.00
2022-10-05T00:27:26.139Z,100.00
2022-10-05T00:29:58.912Z,100.00
2022-10-05T00:32:26.474Z,100.00
2022-10-05T00:34:54.280Z,100.00
2022-10-05T00:37:21.282Z,100.00
2022-10-05T00:39:49.759Z,100.00
2022-10-05T00:42:36.227Z,100.00
2022-10-05T00:45:27.905Z,100.00
2022-10-05T00:48:03.508Z,100.00
2022-10-05T00:50:45.359Z,100.00
2022-10-05T00:53:32.358Z,100.00
2022-10-05T00:56:05.226Z,100.00
2022-10-05T00:59:09.521Z,100.00
2022-10-05T01:02:01.388Z,100.00
2022-10-05T01:04:59.404Z,100.00
2022-10-05T01:07:29.111Z,100.00
2022-10-05T01:10:26.600Z,100.00
2022-10-05T01:13:17.390Z,100.00
2022-10-05T01:15:54.694Z,100.00
2022-10-05T01:18:39.823Z,100.00
2022-10-05T01:21:12.958Z,100.00
2022-10-05T01:24:10.677Z,100.00
2022-10-05T01:27:07.034Z,100.00
2022-10-05T01:29:39.164Z,100.00
2022-10-05T01:32:28.415Z,100.00
2022-10-05T01:35:13.528Z,100.00
2022-10-05T01:37:53.471Z,100.00
2022-10-05T01:40:35.100Z,100.00
2022-10-05T01:43:34.414Z,100.00
2022-10-05T01:46:05.492Z,100.00
2022-10-05T01:48:49.595Z,100.00
2022-10-05T01:51:34.671Z,100.00
2022-10-05T01:54:16.237Z,100.00
2022-10-05T01:57:10.986Z,100.00
2022-10-05T02:00:01.884Z,100.00
2022-10-05T02:02:32.167Z,100.00
2022-10-05T02:05:06.825Z,100.00
2022-10-05T02:07:48.332Z,100.00
2022-10-05T02:10:23.523Z,100.00
2022-10-05T02:12:56.039Z,100.00
2022-10-05T02:15:30.011Z,100.00
2022-10-05T02:18:04.602Z,100.00
2022-10-05T02:20:34.714Z,100.00
2022-10-05T02:23:11.193Z,100.00
2022-10-05T02:25:42.987Z,100.00
2022-10-05T02:28:25.151Z,100.00
2022-10-05T02:31:00.097Z,100.00
2022-10-05T02:33:29.775Z,100.00
2022-10-05T02:36:11.033Z,100.00
2022-10-05T02:39:13.952Z,100.00
2022-10-05T02:41:53.450Z,100.00
2022-10-05T02:44:44.492Z,100.00
2022-10-05T02:47:33.707Z,100.00
2022-10-05T02:50:11.823Z,100.00
2022-10-05T02:52:49.835Z,100.00
2022-10-05T02:55:27.109Z,100.00
2022-10-05T02:58:23.501Z,100.00
2022-10-05T03:01:17.230Z,100.00
2022-10-05T03:03:53.684Z,100.00
2022-10-05T03:06:27.124Z,100.00
2022-10-05T03:09:01.079Z,100.00
2022-10-05T03:11:47.452Z,100.00
2022-10-05T03:14:37.495Z,100.00
2022-10-05T03:17:27.971Z,100.00
2022-10-05T03:20:16.249Z,100.00
2022-10-05T03:22:57.358Z,100.00
2022-10-05T03:26:06.332Z,100.00
2022-10-05T03:28:37.587Z,100.00
2022-10-05T03:31:23.062Z,100.00
2022-10-05T03:34:24.979Z,100.00
2022-10-05T03:36:59.746Z,100.00
2022-10-05T03:39:30.838Z,100.00
2022-10-05T03:42:10.572Z,100.00
2022-10-05T03:44:48.824Z,100.00
2022-10-05T03:47:40.663Z,100.00
2022-10-05T03:50:34.181Z,100.00
2022-10-05T03:53:23.543Z,100.00
2022-10-05T03:56:05.209Z,100.00
2022-10-05T03:59:01.064Z,100.00
2022-10-05T04:01:55.398Z,100.00
2022-10-05T04:04:34.925Z,100.00
2022-10-05T04:07:01.840Z,100.00
2022-10-05T04:09:32.375Z,100.00
2022-10-05T04:12:17.872Z,100.00
2022-10-05T04:14:50.103Z,100.00
2022-10-05T04:17:32.010Z,100.00
2022-10-05T04:20:06.398Z,100.00
2022-10-05T04:22:47.348Z,100.00
2022-10-05T04:25:25.284Z,100.00
2022-10-05T04:28:07.648Z,100.00
2022-10-05T04:30:39.815Z,100.00
2022-10-05T04:33:12.793Z,100.00
2022-10-05T04:36:05.725Z,100.00
2022-10-05T04:38:38.945Z,100.00
2022-10-05T04:41:37.748Z,100.00
2022-10-05T04:44:29.100Z,100.00
2022-10-05T04:47:33.176Z,100.00
2022-10-05T04:50:17.227Z,100.00
2022-10-05T04:53:19.835Z,100.00
2022-10-05T04:55:56.693Z,100.00
2022-10-05T04:58:48.318Z,100.00
2022-10-05T05:01:52.948Z,100.00
2022-10-05T05:04:55.355Z,100.00
2022-10-05T05:07:28.675Z,100.00
2022-10-05T05:10:15.546Z,100.00
2022-10-05T05:13:11.091Z,100.00
2022-10-05T05:15:58.089Z,100.00
2022-10-05T05:18:55.224Z,100.00
2022-10-05T05:21:28.814Z,100.00
2022-10-05T05:24:04.769Z,100.00
2022-10-05T05:26:49.241Z,100.00
2022-10-05T05:29:40.845Z,100.00
2022-10-05T05:32:26.328Z,100.00
2022-10-05T05:35:38.596Z,100.00
2022-10-05T05:38:24.889Z,100.00
2022-10-05T05:41:27.168Z,100.00
2022-10-05T05:44:14.535Z,100.00
2022-10-05T05:47:03.470Z,100.00
2022-10-05T05:49:51.808Z,100.00
2022-10-05T05:52:44.102Z,100.00
2022-10-05T05:55:20.675Z,100.00
2022-10-05T05:57:57.809Z,100.00
2022-10-05T06:00:30.290Z,100.00
2022-10-05T06:03:28.319Z,100.00
2022-10-05T06:06:01.730Z,100.00
2022-10-05T06:09:00.840Z,100.00
2022-10-05T06:11:43.359Z,100.00
2022-10-05T06:14:32.143Z,98.50
2022-10-05T06:17:29.191Z,100.00
2022-10-05T06:20:04.670Z,97.30
2022-10-05T06:22:37.319Z,93.97
2022-10-05T06:25:13.928Z,91.64
2022-10-05T06:28:13.015Z,89.58
2022-10-05T06:31:31.102Z,88.24
2022-10-05T06:34:25.430Z,90.39
2022-10-05T06:37:42.395Z,85.78
2022-10-05T06:40:19.550Z,84.49
2022-10-05T06:43:13.926Z,85.38
2022-10-05T06:46:34.451Z,85.08
2022-10-05T06:49:24.676Z,85.40
2022-10-05T06:52:38.346Z,85.66
2022-10-05T06:55:22.930Z,86.28
2022-10-05T06:58:12.565Z,85.16
2022-10-05T07:00:58.929Z,86.38
2022-10-05T07:03:57.968Z,84.14
2022-10-05T07:06:46.461Z,83.62
2022-10-05T07:09:32.445Z,83.49
2022-10-05T07:12:30.203Z,82.73
2022-10-05T07:15:28.288Z,81.73
2022-10-05T07:18:23.331Z,81.93
2022-10-05T07:21:01.442Z,82.36
2022-10-05T07:24:13.239Z,80.86
2022-10-05T07:26:51.014Z,80.21
2022-10-05T07:29:30.598Z,80.07
2022-10-05T07:32:14.684Z,79.21
2022-10-05T07:34:58.450Z,77.23
2022-10-05T07:37:51.148Z,77.82
2022-10-05T07:40:31.944Z,77.17
2022-10-05T07:43:57.472Z,77.33
2022-10-05T07:46:32.037Z,78.13
2022-10-05T07:49:16.938Z,75.94
2022-10-05T07:52:02.204Z,73.13
2022-10-05T07:54:50.767Z,72.61
2022-10-05T07:57:31.632Z,71.79
2022-10-05T08:00:09.566Z,72.12
2022-10-05T08:03:05.550Z,70.13
2022-10-05T08:05:36.105Z,71.71
2022-10-05T08:08:19.577Z,71.34
2022-10-05T08:11:07.641Z,70.43
2022-10-05T08:13:49.677Z,70.81
2022-10-05T08:16:17.781Z,70.55
2022-10-05T08:19:06.313Z,69.87
2022-10-05T08:21:49.052Z,68.54
2022-10-05T08:24:49.675Z,69.09
2022-10-05T08:27:26.496Z,67.27
2022-10-05T08:30:04.501Z,67.81
2022-10-05T08:32:55.560Z,67.62
2022-10-05T08:35:27.028Z,66.75
2022-10-05T08:37:54.629Z,63.60
2022-10-05T08:40:24.619Z,62.16
2022-10-05T08:43:17.518Z,59.68
2022-10-05T08:46:11.862Z,59.76
2022-10-05T08:49:04.618Z,60.09
2022-10-05T08:51:42.023Z,55.64
2022-10-05T08:54:21.572Z,54.07
2022-10-05T08:57:09.973Z,55.01
2022-10-05T08:59:36.772Z,54.76
2022-10-05T09:02:15.479Z,54.51
2022-10-05T09:05:01.131Z,54.09
2022-10-05T09:07:52.682Z,53.91
2022-10-05T09:10:19.614Z,55.04
2022-10-05T09:13:15.620Z,52.84
2022-10-05T09:16:08.621Z,53.08
2022-10-05T09:19:00.229Z,50.31
2022-10-05T09:21:55.181Z,51.31
2022-10-05T09:24:48.601Z,46.85
2022-10-05T09:27:24.640Z,48.01
2022-10-05T09:30:19.561Z,48.09
2022-10-05T09:33:13.943Z,46.37
2022-10-05T09:36:02.257Z,44.55
2022-10-05T09:38:57.149Z,43.93
2022-10-05T09:41:42.993Z,44.69
2022-10-05T09:44:40.583Z,43.84
2022-10-05T09:47:40.224Z,41.72
2022-10-05T09:50:16.379Z,41.71
2022-10-05T09:53:20.563Z,42.91
2022-10-05T09:56:16.672Z,43.51
2022-10-05T09:59:08.631Z,43.00
2022-10-05T10:02:00.727Z,42.22
2022-10-05T10:04:35.308Z,41.65
2022-10-05T10:07:27.061Z,41.22
2022-10-05T10:10:31.792Z,39.67
2022-10-05T10:13:19.874Z,40.85
2022-10-05T10:16:02.347Z,41.59
2022-10-05T10:18:47.745Z,39.86
2022-10-05T10:21:39.461Z,40.36
2022-10-05T10:24:24.445Z,38.92
2022-10-05T10:26:54.639Z,39.34
2022-10-05T10:29:43.055Z,39.68
2022-10-05T10:32:29.366Z,39.44
2022-10-05T10:35:04.950Z,36.99
2022-10-05T10:37:53.247Z,37.35
2022-10-05T10:40:41.710Z,37.14
2022-10-05T10:43:23.335Z,36.83
2022-10-05T10:46:23.895Z,36.06
2022-10-05T10:48:57.520Z,36.50
2022-10-05T10:51:53.158Z,36.35
2022-10-05T10:54:38.090Z,37.59
2022-10-05T10:57:08.832Z,34.61
2022-10-05T11:00:00.530Z,36.71
2022-10-05T11:02:57.942Z,34.94
2022-10-05T11:05:28.987Z,34.51
2022-10-05T11:08:15.284Z,34.31
2022-10-05T11:10:59.008Z,35.14
2022-10-05T11:13:56.439Z,35.03
2022-10-05T11:16:41.992Z,34.58
2022-10-05T11:19:40.534Z,34.26
2022-10-05T11:22:25.602Z,35.23
2022-10-05T11:25:21.024Z,34.12
2022-10-05T11:28:05.972Z,32.90
2022-10-05T11:30:56.539Z,33.93
2022-10-05T11:33:26.055Z,34.17
2022-10-05T11:36:08.979Z,34.28
2022-10-05T11:38:54.382Z,33.08
2022-10-05T11:41:58.091Z,33.43
2022-10-05T11:44:46.390Z,34.75
2022-10-05T11:47:16.065Z,32.67
2022-10-05T11:50:14.798Z,32.78
2022-10-05T11:53:07.675Z,33.29
2022-10-05T11:55:40.787Z,32.20
2022-10-05T11:58:23.723Z,32.77
2022-10-05T12:01:05.518Z,32.51
2022-10-05T12:03:46.877Z,31.96
2022-10-05T12:06:34.291Z,32.25
2022-10-05T12:09:12.916Z,31.97
2022-10-05T12:12:14.445Z,32.84
2022-10-05T12:15:11.860Z,31.26
2022-10-05T12:18:00.220Z,29.91
2022-10-05T12:20:49.187Z,29.40
2022-10-05T12:23:24.832Z,29.89
2022-10-05T12:25:54.880Z,28.30
2022-10-05T12:28:47.151Z,29.67
2022-10-05T12:31:26.608Z,30.13
2022-10-05T12:34:08.282Z,31.32
2022-10-05T12:37:04.200Z,30.62
2022-10-05T12:39:55.027Z,29.80
2022-10-05T12:42:51.349Z,31.11
2022-10-05T12:45:30.532Z,30.38
2022-10-05T12:48:29.659Z,30.90
2022-10-05T12:51:20.384Z,31.29
2022-10-05T12:54:21.928Z,30.55
2022-10-05T12:56:57.111Z,30.14
2022-10-05T12:59:35.044Z,30.27
2022-10-05T13:02:01.903Z,30.03
2022-10-05T13:05:06.247Z,30.65
2022-10-05T13:07:45.101Z,30.40
2022-10-05T13:10:38.040Z,30.22
2022-10-05T13:13:40.041Z,31.14
2022-10-05T13:16:16.210Z,30.67
2022-10-05T13:19:00.268Z,30.36
2022-10-05T13:21:40.851Z,31.38
2022-10-05T13:24:28.931Z,30.08
2022-10-05T13:27:18.328Z,30.14
2022-10-05T13:30:02.366Z,30.00
2022-10-05T13:32:39.980Z,30.65
2022-10-05T13:35:31.194Z,30.45
2022-10-05T13:38:01.853Z,30.92
2022-10-05T13:40:47.675Z,30.86
2022-10-05T13:43:35.198Z,30.88
2022-10-05T13:46:10.495Z,31.11
2022-10-05T13:48:55.524Z,31.62
2022-10-05T13:51:28.323Z,32.04
2022-10-05T13:54:05.820Z,31.85
2022-10-05T13:56:36.763Z,32.26
2022-10-05T13:59:55.910Z,31.88
2022-10-05T14:02:30.521Z,32.04
2022-10-05T14:05:04.673Z,31.77
2022-10-05T14:07:37.954Z,31.85
2022-10-05T14:10:12.426Z,31.43
2022-10-05T14:12:42.083Z,31.26
2022-10-05T14:15:32.593Z,31.23
2022-10-05T14:17:59.730Z,31.07
2022-10-05T14:20:31.750Z,30.67
2022-10-05T14:23:01.953Z,31.66
2022-10-05T14:25:30.786Z,30.69
2022-10-05T14:28:28.673Z,31.46
2022-10-05T14:30:59.783Z,31.47
2022-10-05T14:33:36.442Z,30.50
2022-10-05T14:36:04.009Z,29.40
2022-10-05T14:38:51.856Z,30.46
2022-10-05T14:41:21.148Z,31.18
2022-10-05T14:47:22.779Z,31.51
2022-10-05T14:50:10.874Z,30.29
2022-10-05T14:52:39.199Z,31.27
2022-10-05T14:55:18.086Z,30.59
2022-10-05T14:57:59.851Z,30.12
2022-10-05T15:00:28.968Z,31.08
2022-10-05T15:03:04.755Z,31.39
2022-10-05T15:05:50.122Z,30.27
2022-10-05T15:08:36.208Z,30.99
2022-10-05T15:11:14.186Z,32.39
2022-10-05T15:13:43.912Z,33.05
2022-10-05T15:16:31.511Z,33.53
2022-10-05T15:18:58.342Z,34.07
2022-10-05T15:21:52.177Z,34.76
2022-10-05T15:24:25.411Z,35.33
2022-10-05T15:26:52.217Z,35.61
2022-10-05T15:29:38.401Z,36.38
2022-10-05T15:32:14.845Z,36.43
2022-10-05T15:34:50.035Z,37.10
2022-10-05T15:37:33.197Z,38.14
2022-10-05T15:40:03.952Z,38.85
2022-10-05T15:42:44.021Z,40.88
2022-10-05T15:45:30.232Z,42.07
2022-10-05T15:48:02.003Z,42.46
2022-10-05T15:50:37.628Z,43.49
2022-10-05T15:53:20.728Z,43.90
2022-10-05T15:56:04.571Z,44.45
2022-10-05T15:59:02.727Z,44.92
2022-10-05T16:01:53.448Z,45.13
2022-10-05T16:04:41.414Z,45.72
2022-10-05T16:07:36.320Z,45.74
2022-10-05T16:10:21.638Z,46.75
2022-10-05T16:13:15.504Z,47.15
2022-10-05T16:16:01.000Z,47.52
2022-10-05T16:18:38.716Z,47.68
2022-10-05T16:21:29.936Z,47.82
2022-10-05T16:24:30.308Z,48.61
2022-10-05T16:27:10.524Z,49.36
2022-10-05T16:29:49.848Z,49.37
2022-10-05T16:32:24.669Z,49.48
2022-10-05T16:35:02.077Z,49.77
2022-10-05T16:37:52.779Z,50.67
2022-10-05T16:40:52.934Z,51.18
2022-10-05T16:43:25.887Z,51.92
2022-10-05T16:46:22.357Z,51.93
2022-10-05T16:49:01.279Z,52.25
2022-10-05T16:51:30.706Z,53.34
2022-10-05T16:54:21.135Z,53.23
2022-10-05T16:56:53.954Z,53.70
2022-10-05T16:59:36.078Z,52.92
2022-10-05T17:02:17.952Z,52.91
2022-10-05T17:04:54.488Z,54.18
2022-10-05T17:07:43.421Z,52.84
2022-10-05T17:10:28.987Z,52.96
2022-10-05T17:12:58.594Z,53.03
2022-10-05T17:15:44.296Z,53.16
2022-10-05T17:18:24.022Z,53.75
2022-10-05T17:21:11.862Z,54.31
2022-10-05T17:24:23.820Z,56.72
2022-10-05T17:26:57.700Z,56.39
2022-10-05T17:29:47.737Z,57.37
2022-10-05T17:32:33.773Z,56.71
2022-10-05T17:35:04.320Z,58.13
2022-10-05T17:37:35.773Z,56.16
2022-10-05T17:40:30.347Z,57.01
2022-10-05T17:43:01.404Z,58.67
2022-10-05T17:45:34.035Z,60.25
2022-10-05T17:48:03.843Z,59.19
2022-10-05T17:50:55.244Z,60.57
2022-10-05T17:53:54.752Z,62.26
2022-10-05T17:56:23.402Z,65.91
2022-10-05T17:58:54.651Z,63.81
2022-10-05T18:01:34.099Z,64.83
2022-10-05T18:04:13.282Z,66.46
2022-10-05T18:06:47.723Z,66.03
2022-10-05T18:09:17.063Z,65.79
2022-10-05T18:12:02.720Z,66.39
2022-10-05T18:14:49.483Z,67.34
2022-10-05T18:17:40.135Z,67.71
2022-10-05T18:20:18.182Z,69.06
2022-10-05T18:22:47.306Z,71.07
2022-10-05T18:25:27.339Z,71.36
2022-10-05T18:28:13.057Z,72.01
2022-10-05T18:30:55.162Z,72.72
2022-10-05T18:33:50.806Z,74.16
2022-10-05T18:36:44.863Z,74.00
2022-10-05T18:39:20.729Z,74.61
2022-10-05T18:41:56.524Z,74.74
2022-10-05T18:44:40.030Z,76.15
2022-10-05T18:47:25.840Z,77.58
2022-10-05T18:50:17.159Z,78.75
2022-10-05T18:52:58.957Z,78.90
2022-10-05T18:55:47.405Z,78.89
2022-10-05T18:58:26.025Z,79.08
2022-10-05T19:01:11.149Z,79.40
2022-10-05T19:03:59.259Z,83.92
2022-10-05T19:06:36.002Z,80.76
2022-10-05T19:09:17.612Z,81.28
2022-10-05T19:12:01.440Z,80.77
2022-10-05T19:15:01.926Z,81.37
2022-10-05T19:17:53.375Z,81.41
2022-10-05T19:20:26.618Z,81.89
2022-10-05T19:23:04.055Z,82.37
2022-10-05T19:25:43.401Z,82.05
2022-10-05T19:28:29.147Z,81.67
2022-10-05T19:31:21.525Z,82.44
2022-10-05T19:34:25.941Z,82.64
2022-10-05T19:37:18.583Z,83.34
2022-10-05T19:40:18.918Z,83.71
2022-10-05T19:42:48.666Z,84.36
2022-10-05T19:45:24.631Z,84.76
2022-10-05T19:48:20.329Z,84.57
2022-10-05T19:50:59.342Z,85.50
2022-10-05T19:53:44.355Z,85.85
2022-10-05T19:56:17.524Z,85.24
2022-10-05T19:58:45.152Z,85.06
2022-10-05T20:01:21.935Z,85.12
2022-10-05T20:03:51.007Z,84.85
2022-10-05T20:06:20.285Z,85.34
2022-10-05T20:08:49.938Z,85.73
2022-10-05T20:11:22.709Z,85.87
2022-10-05T20:13:52.263Z,85.64
2022-10-05T20:16:39.636Z,85.96
2022-10-05T20:19:44.151Z,86.19
2022-10-05T20:22:34.313Z,86.24
2022-10-05T20:25:05.801Z,86.33
2022-10-05T20:27:34.698Z,85.99
2022-10-05T20:30:04.627Z,86.51
2022-10-05T20:32:31.493Z,87.14
2022-10-05T20:34:58.480Z,87.08
2022-10-05T20:37:25.770Z,87.33
2022-10-05T20:39:52.839Z,87.47
2022-10-05T20:42:20.980Z,87.87
2022-10-05T20:44:51.782Z,87.74
2022-10-05T20:47:21.148Z,87.76
2022-10-05T20:49:47.926Z,87.84
2022-10-05T20:52:15.910Z,87.77
2022-10-05T20:54:42.758Z,88.59
2022-10-05T20:57:10.374Z,89.46
2022-10-05T20:59:37.491Z,89.16
2022-10-05T21:02:04.430Z,89.39
2022-10-05T21:04:40.293Z,88.91
2022-10-05T21:07:07.563Z,88.96
2022-10-05T21:09:34.353Z,88.92
2022-10-05T21:12:01.366Z,89.05
2022-10-05T21:14:30.714Z,88.83
2022-10-05T21:16:57.396Z,89.28
2022-10-05T21:19:24.220Z,89.69
2022-10-05T21:21:51.019Z,91.31
2022-10-05T21:24:17.785Z,90.49
2022-10-05T21:26:45.267Z,89.58
2022-10-05T21:29:13.128Z,89.15
2022-10-05T21:31:40.691Z,88.77
2022-10-05T21:34:08.703Z,88.90
2022-10-05T21:36:35.438Z,88.41
2022-10-05T21:39:02.288Z,88.79
2022-10-05T21:41:29.185Z,88.56
2022-10-05T21:43:56.099Z,88.75
2022-10-05T21:46:26.685Z,89.24
2022-10-05T21:48:54.802Z,89.39
2022-10-05T21:51:25.402Z,89.10
2022-10-05T21:53:55.487Z,88.59
2022-10-05T21:56:25.929Z,88.78
2022-10-05T21:58:53.011Z,88.57
2022-10-05T22:01:22.683Z,88.83
2022-10-05T22:03:50.180Z,89.25
2022-10-05T22:06:17.038Z,89.26
2022-10-05T22:08:43.886Z,89.40
2022-10-05T22:11:16.255Z,89.51
2022-10-05T22:13:46.108Z,89.74
2022-10-05T22:16:14.333Z,89.68
2022-10-05T22:18:41.871Z,89.74
2022-10-05T22:21:12.227Z,90.24
2022-10-05T22:23:40.956Z,91.50
2022-10-05T22:26:11.228Z,91.55
2022-10-05T22:28:39.784Z,91.01
2022-10-05T22:31:08.165Z,91.08
2022-10-05T22:33:35.267Z,90.85
2022-10-05T22:36:02.114Z,91.64
2022-10-05T22:38:30.694Z,91.94
2022-10-05T22:40:58.027Z,92.73
2022-10-05T22:43:27.178Z,93.29
2022-10-05T22:45:54.603Z,93.87
2022-10-05T22:48:21.788Z,94.15
2022-10-05T22:50:49.416Z,94.59
2022-10-05T22:53:16.375Z,94.97
2022-10-05T22:55:43.136Z,94.84
2022-10-05T22:58:10.001Z,94.44
2022-10-05T23:00:57.145Z,94.12
2022-10-05T23:03:23.642Z,94.11
2022-10-05T23:05:56.956Z,94.95
2022-10-05T23:08:23.774Z,95.44
2022-10-05T23:10:50.593Z,96.39
2022-10-05T23:13:17.339Z,97.99
2022-10-05T23:15:45.025Z,99.06
2022-10-05T23:18:12.470Z,99.70
2022-10-05T23:20:40.330Z,100.00
2022-10-05T23:23:07.103Z,100.00
2022-10-05T23:25:33.889Z,100.00
2022-10-05T23:28:02.672Z,100.00
2022-10-05T23:30:29.699Z,100.00
2022-10-05T23:32:56.527Z,100.00
2022-10-05T23:35:23.372Z,100.00
2022-10-05T23:37:50.164Z,100.00
2022-10-05T23:40:16.975Z,100.00
2022-10-05T23:42:43.757Z,100.00
2022-10-05T23:45:12.014Z,100.00
2022-10-05T23:47:39.877Z,100.00
2022-10-05T23:50:08.292Z,100.00
2022-10-05T23:52:36.582Z,100.00
2022-10-05T23:55:04.798Z,100.00
2022-10-05T23:57:32.081Z,100.00
2022-10-05T23:59:58.895Z,100.00
